Mount Joy, Pennsylvania
Current Conditions -  °F | °C
As of 6:53 PM on Saturday 20 Dec 2014 (Local Time) from KLNS Reporting Station
Overcast Overcast  
Wind Chill: 30°   Ceiling: 12000
Heat Index: 30°   Visibility: 8mi
Dew Point: 21°   Wind: 3mph
Humidity: 69%   Direction: 340°NNW
Pressure: 30.28"   Gusts: NA
Location:  40.11°N, 76.51°W
Report Text: KLNS 202353Z 34003KT 8SM FEW031 OVC120 M01/M06 A3028 RMK AO2 SLP257 T10111061 10011 21011 51009
Loading
Personal Weather Stations






























Interactive Weather Map New forecast layout! Learn more

10-Day Weather Forecast

Advertisements
Track Severe Weather on mobile